sensor_id;sensor_type;location;lat;lon;timestamp;temperature;humidity
54960;DHT22;40860;51.710;8.736;2022-12-05T00:03:14;2.60;99.90
54960;DHT22;40860;51.710;8.736;2022-12-05T00:07:19;2.60;99.90
54960;DHT22;40860;51.710;8.736;2022-12-05T00:11:23;2.60;99.90
54960;DHT22;40860;51.710;8.736;2022-12-05T00:15:26;2.60;99.90
54960;DHT22;40860;51.710;8.736;2022-12-05T00:19:29;2.60;99.90
54960;DHT22;40860;51.710;8.736;2022-12-05T00:23:34;2.60;99.90
54960;DHT22;40860;51.710;8.736;2022-12-05T00:27:36;2.60;99.90
54960;DHT22;40860;51.710;8.736;2022-12-05T00:31:40;2.60;99.90
54960;DHT22;40860;51.710;8.736;2022-12-05T00:35:43;2.60;99.90
54960;DHT22;40860;51.710;8.736;2022-12-05T00:39:47;2.60;99.90
54960;DHT22;40860;51.710;8.736;2022-12-05T00:43:51;2.60;99.90
54960;DHT22;40860;51.710;8.736;2022-12-05T00:47:54;2.60;99.90
54960;DHT22;40860;51.710;8.736;2022-12-05T00:51:57;2.60;99.90
54960;DHT22;40860;51.710;8.736;2022-12-05T00:56:02;2.60;99.90
54960;DHT22;40860;51.710;8.736;2022-12-05T01:00:07;2.60;99.90
54960;DHT22;40860;51.710;8.736;2022-12-05T01:04:13;2.70;99.90
54960;DHT22;40860;51.710;8.736;2022-12-05T01:08:17;2.60;99.90
54960;DHT22;40860;51.710;8.736;2022-12-05T01:12:21;2.60;99.90
54960;DHT22;40860;51.710;8.736;2022-12-05T01:16:27;2.60;99.90
54960;DHT22;40860;51.710;8.736;2022-12-05T01:20:30;2.60;99.90
54960;DHT22;40860;51.710;8.736;2022-12-05T01:24:33;2.60;99.90
54960;DHT22;40860;51.710;8.736;2022-12-05T01:28:38;2.60;99.90
54960;DHT22;40860;51.710;8.736;2022-12-05T01:32:41;2.60;99.90
54960;DHT22;40860;51.710;8.736;2022-12-05T01:36:45;2.60;99.90
54960;DHT22;40860;51.710;8.736;2022-12-05T01:40:48;2.60;99.90
54960;DHT22;40860;51.710;8.736;2022-12-05T01:45:05;2.60;99.90
54960;DHT22;40860;51.710;8.736;2022-12-05T01:49:11;2.60;99.90
54960;DHT22;40860;51.710;8.736;2022-12-05T01:53:16;2.60;99.90
54960;DHT22;40860;51.710;8.736;2022-12-05T01:57:19;2.60;99.90
54960;DHT22;40860;51.710;8.736;2022-12-05T02:01:23;2.60;99.90
54960;DHT22;40860;51.710;8.736;2022-12-05T02:05:28;2.60;99.90
54960;DHT22;40860;51.710;8.736;2022-12-05T02:09:31;2.50;99.90
54960;DHT22;40860;51.710;8.736;2022-12-05T02:13:45;2.50;99.90
54960;DHT22;40860;51.710;8.736;2022-12-05T02:18:00;2.50;99.90
54960;DHT22;40860;51.710;8.736;2022-12-05T02:26:51;2.60;99.90
54960;DHT22;40860;51.710;8.736;2022-12-05T02:31:02;2.60;99.90
54960;DHT22;40860;51.710;8.736;2022-12-05T02:35:15;2.60;99.90
54960;DHT22;40860;51.710;8.736;2022-12-05T02:39:31;2.60;99.90
54960;DHT22;40860;51.710;8.736;2022-12-05T02:43:39;2.60;99.90
54960;DHT22;40860;51.710;8.736;2022-12-05T02:47:46;2.60;99.90
54960;DHT22;40860;51.710;8.736;2022-12-05T02:51:54;2.60;99.90
54960;DHT22;40860;51.710;8.736;2022-12-05T02:55:58;2.60;99.90
54960;DHT22;40860;51.710;8.736;2022-12-05T03:00:03;2.60;99.90
54960;DHT22;40860;51.710;8.736;2022-12-05T03:04:09;2.60;99.90
54960;DHT22;40860;51.710;8.736;2022-12-05T03:08:18;2.60;99.90
54960;DHT22;40860;51.710;8.736;2022-12-05T03:12:25;2.60;99.90
54960;DHT22;40860;51.710;8.736;2022-12-05T03:16:32;2.60;99.90
54960;DHT22;40860;51.710;8.736;2022-12-05T03:20:42;2.60;99.90
54960;DHT22;40860;51.710;8.736;2022-12-05T03:24:47;2.60;99.90
54960;DHT22;40860;51.710;8.736;2022-12-05T03:28:57;2.60;99.90
54960;DHT22;40860;51.710;8.736;2022-12-05T03:33:06;2.60;99.90
54960;DHT22;40860;51.710;8.736;2022-12-05T03:37:17;2.60;99.90
54960;DHT22;40860;51.710;8.736;2022-12-05T03:41:24;2.60;99.90
54960;DHT22;40860;51.710;8.736;2022-12-05T03:45:34;2.60;99.90
54960;DHT22;40860;51.710;8.736;2022-12-05T03:49:42;2.60;99.90
54960;DHT22;40860;51.710;8.736;2022-12-05T03:53:50;2.60;99.90
54960;DHT22;40860;51.710;8.736;2022-12-05T03:57:57;2.60;99.90
54960;DHT22;40860;51.710;8.736;2022-12-05T04:02:05;2.60;99.90
54960;DHT22;40860;51.710;8.736;2022-12-05T04:06:13;2.60;99.90
54960;DHT22;40860;51.710;8.736;2022-12-05T04:10:26;2.60;99.90
54960;DHT22;40860;51.710;8.736;2022-12-05T04:14:35;2.60;99.90
54960;DHT22;40860;51.710;8.736;2022-12-05T04:18:43;2.60;99.90
54960;DHT22;40860;51.710;8.736;2022-12-05T04:22:48;2.60;99.90
54960;DHT22;40860;51.710;8.736;2022-12-05T04:27:00;2.60;99.90
54960;DHT22;40860;51.710;8.736;2022-12-05T04:31:07;2.60;99.90
54960;DHT22;40860;51.710;8.736;2022-12-05T04:35:14;2.60;99.90
54960;DHT22;40860;51.710;8.736;2022-12-05T04:39:22;2.60;99.90
54960;DHT22;40860;51.710;8.736;2022-12-05T04:43:31;2.60;99.90
54960;DHT22;40860;51.710;8.736;2022-12-05T04:47:39;2.60;99.90
54960;DHT22;40860;51.710;8.736;2022-12-05T04:51:44;2.60;99.90
54960;DHT22;40860;51.710;8.736;2022-12-05T04:55:49;2.60;99.90
54960;DHT22;40860;51.710;8.736;2022-12-05T04:59:55;2.60;99.90
54960;DHT22;40860;51.710;8.736;2022-12-05T05:04:05;2.60;99.90
54960;DHT22;40860;51.710;8.736;2022-12-05T05:08:16;2.60;99.90
54960;DHT22;40860;51.710;8.736;2022-12-05T05:12:19;2.60;99.90
54960;DHT22;40860;51.710;8.736;2022-12-05T05:16:25;2.60;99.90
54960;DHT22;40860;51.710;8.736;2022-12-05T05:20:28;2.60;99.90
54960;DHT22;40860;51.710;8.736;2022-12-05T05:24:31;2.50;99.90
54960;DHT22;40860;51.710;8.736;2022-12-05T05:28:34;2.50;99.90
54960;DHT22;40860;51.710;8.736;2022-12-05T05:32:38;2.50;99.90
54960;DHT22;40860;51.710;8.736;2022-12-05T05:36:41;2.60;99.90
54960;DHT22;40860;51.710;8.736;2022-12-05T05:40:44;2.50;99.90
54960;DHT22;40860;51.710;8.736;2022-12-05T05:44:47;2.50;99.90
54960;DHT22;40860;51.710;8.736;2022-12-05T05:48:51;2.50;99.90
54960;DHT22;40860;51.710;8.736;2022-12-05T05:52:55;2.50;99.90
54960;DHT22;40860;51.710;8.736;2022-12-05T05:56:57;2.40;99.90
54960;DHT22;40860;51.710;8.736;2022-12-05T06:01:02;2.50;99.90
54960;DHT22;40860;51.710;8.736;2022-12-05T06:05:07;2.40;99.90
54960;DHT22;40860;51.710;8.736;2022-12-05T06:09:11;2.40;99.90
54960;DHT22;40860;51.710;8.736;2022-12-05T06:13:13;2.40;99.90
54960;DHT22;40860;51.710;8.736;2022-12-05T06:17:16;2.40;99.90
54960;DHT22;40860;51.710;8.736;2022-12-05T06:21:21;2.30;99.90
54960;DHT22;40860;51.710;8.736;2022-12-05T06:25:24;2.30;99.90
54960;DHT22;40860;51.710;8.736;2022-12-05T06:29:27;2.30;99.90
54960;DHT22;40860;51.710;8.736;2022-12-05T06:33:35;2.30;99.90
54960;DHT22;40860;51.710;8.736;2022-12-05T06:37:39;2.20;99.90
54960;DHT22;40860;51.710;8.736;2022-12-05T06:41:42;2.10;99.90
54960;DHT22;40860;51.710;8.736;2022-12-05T06:45:45;2.00;99.90
54960;DHT22;40860;51.710;8.736;2022-12-05T06:49:48;2.00;99.90
54960;DHT22;40860;51.710;8.736;2022-12-05T06:53:53;1.90;99.90
54960;DHT22;40860;51.710;8.736;2022-12-05T06:57:56;1.90;99.90
54960;DHT22;40860;51.710;8.736;2022-12-05T07:01:59;1.80;99.90
54960;DHT22;40860;51.710;8.736;2022-12-05T07:06:04;1.70;99.90
54960;DHT22;40860;51.710;8.736;2022-12-05T07:10:08;1.60;99.90
54960;DHT22;40860;51.710;8.736;2022-12-05T07:14:11;1.60;99.90
54960;DHT22;40860;51.710;8.736;2022-12-05T07:18:34;1.60;99.90
54960;DHT22;40860;51.710;8.736;2022-12-05T07:22:37;1.50;99.90
54960;DHT22;40860;51.710;8.736;2022-12-05T07:26:41;1.50;99.90
54960;DHT22;40860;51.710;8.736;2022-12-05T07:30:44;1.50;99.90
54960;DHT22;40860;51.710;8.736;2022-12-05T07:34:47;1.50;99.90
54960;DHT22;40860;51.710;8.736;2022-12-05T07:38:57;1.40;99.90
54960;DHT22;40860;51.710;8.736;2022-12-05T07:43:01;1.40;99.90
54960;DHT22;40860;51.710;8.736;2022-12-05T07:47:04;1.40;99.90
54960;DHT22;40860;51.710;8.736;2022-12-05T07:51:08;1.40;99.90
54960;DHT22;40860;51.710;8.736;2022-12-05T07:55:11;1.40;99.90
54960;DHT22;40860;51.710;8.736;2022-12-05T07:59:15;1.40;99.90
54960;DHT22;40860;51.710;8.736;2022-12-05T08:03:18;1.40;99.90
54960;DHT22;40860;51.710;8.736;2022-12-05T08:07:21;1.40;99.90
54960;DHT22;40860;51.710;8.736;2022-12-05T08:11:25;1.40;99.90
54960;DHT22;40860;51.710;8.736;2022-12-05T08:15:33;1.40;99.90
54960;DHT22;40860;51.710;8.736;2022-12-05T08:19:36;1.40;99.90
54960;DHT22;40860;51.710;8.736;2022-12-05T08:23:39;1.40;99.90
54960;DHT22;40860;51.710;8.736;2022-12-05T08:27:42;1.40;99.90
54960;DHT22;40860;51.710;8.736;2022-12-05T08:31:48;1.40;99.90
54960;DHT22;40860;51.710;8.736;2022-12-05T08:35:51;1.40;99.90
54960;DHT22;40860;51.710;8.736;2022-12-05T08:39:54;1.40;99.90
54960;DHT22;40860;51.710;8.736;2022-12-05T08:43:58;1.40;99.90
54960;DHT22;40860;51.710;8.736;2022-12-05T08:48:05;1.40;99.90
54960;DHT22;40860;51.710;8.736;2022-12-05T08:52:08;1.40;99.90
54960;DHT22;40860;51.710;8.736;2022-12-05T08:56:11;1.40;99.90
54960;DHT22;40860;51.710;8.736;2022-12-05T09:00:15;1.40;99.90
54960;DHT22;40860;51.710;8.736;2022-12-05T09:04:19;1.40;99.90
54960;DHT22;40860;51.710;8.736;2022-12-05T09:08:22;1.50;99.90
54960;DHT22;40860;51.710;8.736;2022-12-05T09:12:25;1.50;99.90
54960;DHT22;40860;51.710;8.736;2022-12-05T09:16:29;1.50;99.90
54960;DHT22;40860;51.710;8.736;2022-12-05T09:20:41;1.50;99.90
54960;DHT22;40860;51.710;8.736;2022-12-05T09:24:44;1.50;99.90
54960;DHT22;40860;51.710;8.736;2022-12-05T09:28:47;1.50;99.90
54960;DHT22;40860;51.710;8.736;2022-12-05T09:32:50;1.50;99.90
54960;DHT22;40860;51.710;8.736;2022-12-05T09:36:54;1.50;99.90
54960;DHT22;40860;51.710;8.736;2022-12-05T09:41:31;1.50;99.90
54960;DHT22;40860;51.710;8.736;2022-12-05T09:45:59;1.60;99.90
54960;DHT22;40860;51.710;8.736;2022-12-05T09:50:14;1.60;99.90
54960;DHT22;40860;51.710;8.736;2022-12-05T09:54:21;1.60;99.90
54960;DHT22;40860;51.710;8.736;2022-12-05T09:58:27;1.60;99.90
54960;DHT22;40860;51.710;8.736;2022-12-05T10:02:36;1.60;99.90
54960;DHT22;40860;51.710;8.736;2022-12-05T10:06:51;1.60;99.90
54960;DHT22;40860;51.710;8.736;2022-12-05T10:11:00;1.60;99.90
54960;DHT22;40860;51.710;8.736;2022-12-05T10:15:10;1.70;99.90
54960;DHT22;40860;51.710;8.736;2022-12-05T10:19:17;1.70;99.90
54960;DHT22;40860;51.710;8.736;2022-12-05T10:23:22;1.70;99.90
54960;DHT22;40860;51.710;8.736;2022-12-05T10:27:50;1.80;99.90
54960;DHT22;40860;51.710;8.736;2022-12-05T10:31:56;1.80;99.90
54960;DHT22;40860;51.710;8.736;2022-12-05T10:36:08;1.80;99.90
54960;DHT22;40860;51.710;8.736;2022-12-05T10:40:12;1.80;99.90
54960;DHT22;40860;51.710;8.736;2022-12-05T10:44:17;1.80;99.90
54960;DHT22;40860;51.710;8.736;2022-12-05T10:48:20;1.80;99.90
54960;DHT22;40860;51.710;8.736;2022-12-05T10:52:24;1.90;99.90
54960;DHT22;40860;51.710;8.736;2022-12-05T10:56:37;1.90;99.90
54960;DHT22;40860;51.710;8.736;2022-12-05T11:00:45;1.90;99.90
54960;DHT22;40860;51.710;8.736;2022-12-05T11:04:50;1.80;99.90
54960;DHT22;40860;51.710;8.736;2022-12-05T11:08:55;1.80;99.90
54960;DHT22;40860;51.710;8.736;2022-12-05T11:13:14;1.80;99.90
54960;DHT22;40860;51.710;8.736;2022-12-05T11:17:24;1.90;99.90
54960;DHT22;40860;51.710;8.736;2022-12-05T11:21:41;1.90;99.90
54960;DHT22;40860;51.710;8.736;2022-12-05T11:25:44;1.90;99.90
54960;DHT22;40860;51.710;8.736;2022-12-05T11:29:58;1.80;99.90
54960;DHT22;40860;51.710;8.736;2022-12-05T11:34:11;1.80;99.90
54960;DHT22;40860;51.710;8.736;2022-12-05T11:38:18;1.80;99.90
54960;DHT22;40860;51.710;8.736;2022-12-05T11:42:43;1.80;99.90
54960;DHT22;40860;51.710;8.736;2022-12-05T11:46:56;1.80;99.90
54960;DHT22;40860;51.710;8.736;2022-12-05T11:51:18;1.80;99.90
54960;DHT22;40860;51.710;8.736;2022-12-05T11:55:25;1.80;99.90
54960;DHT22;40860;51.710;8.736;2022-12-05T11:59:47;1.90;99.90
54960;DHT22;40860;51.710;8.736;2022-12-05T12:04:08;1.90;99.90
54960;DHT22;40860;51.710;8.736;2022-12-05T12:08:23;1.90;99.90
54960;DHT22;40860;51.710;8.736;2022-12-05T12:12:33;1.90;99.90
54960;DHT22;40860;51.710;8.736;2022-12-05T12:16:47;1.90;99.90
54960;DHT22;40860;51.710;8.736;2022-12-05T12:21:06;1.90;99.90
54960;DHT22;40860;51.710;8.736;2022-12-05T12:25:28;2.00;99.90
54960;DHT22;40860;51.710;8.736;2022-12-05T12:29:43;2.00;99.90
54960;DHT22;40860;51.710;8.736;2022-12-05T12:33:57;1.90;99.90
54960;DHT22;40860;51.710;8.736;2022-12-05T12:38:26;1.90;99.90
54960;DHT22;40860;51.710;8.736;2022-12-05T12:42:42;1.90;99.90
54960;DHT22;40860;51.710;8.736;2022-12-05T12:46:51;1.90;99.90
54960;DHT22;40860;51.710;8.736;2022-12-05T12:50:56;1.90;99.90
54960;DHT22;40860;51.710;8.736;2022-12-05T12:55:09;1.90;99.90
54960;DHT22;40860;51.710;8.736;2022-12-05T12:59:37;2.00;99.90
54960;DHT22;40860;51.710;8.736;2022-12-05T13:03:45;1.90;99.90
54960;DHT22;40860;51.710;8.736;2022-12-05T13:07:57;1.90;99.90
54960;DHT22;40860;51.710;8.736;2022-12-05T13:12:05;1.90;99.90
54960;DHT22;40860;51.710;8.736;2022-12-05T13:16:22;1.90;99.90
54960;DHT22;40860;51.710;8.736;2022-12-05T13:20:30;1.80;99.90
54960;DHT22;40860;51.710;8.736;2022-12-05T13:24:34;1.80;99.90
54960;DHT22;40860;51.710;8.736;2022-12-05T13:28:48;1.80;99.90
54960;DHT22;40860;51.710;8.736;2022-12-05T13:32:57;1.80;99.90
54960;DHT22;40860;51.710;8.736;2022-12-05T13:37:10;1.80;99.90
54960;DHT22;40860;51.710;8.736;2022-12-05T13:41:41;1.80;99.90
54960;DHT22;40860;51.710;8.736;2022-12-05T13:46:06;1.80;99.90
54960;DHT22;40860;51.710;8.736;2022-12-05T13:50:16;1.80;99.90
54960;DHT22;40860;51.710;8.736;2022-12-05T13:54:23;1.70;99.90
54960;DHT22;40860;51.710;8.736;2022-12-05T13:58:45;1.70;99.90
54960;DHT22;40860;51.710;8.736;2022-12-05T14:02:50;1.70;99.90
54960;DHT22;40860;51.710;8.736;2022-12-05T14:06:58;1.70;99.90
54960;DHT22;40860;51.710;8.736;2022-12-05T14:11:09;1.60;99.90
54960;DHT22;40860;51.710;8.736;2022-12-05T14:15:27;1.60;99.90
54960;DHT22;40860;51.710;8.736;2022-12-05T14:19:52;1.60;99.90
54960;DHT22;40860;51.710;8.736;2022-12-05T14:24:05;1.60;99.90
54960;DHT22;40860;51.710;8.736;2022-12-05T14:28:33;1.60;99.90
54960;DHT22;40860;51.710;8.736;2022-12-05T14:32:38;1.60;99.90
54960;DHT22;40860;51.710;8.736;2022-12-05T14:36:58;1.60;99.90
54960;DHT22;40860;51.710;8.736;2022-12-05T14:41:13;1.60;99.90
54960;DHT22;40860;51.710;8.736;2022-12-05T14:45:26;1.60;99.90
54960;DHT22;40860;51.710;8.736;2022-12-05T14:49:35;1.60;99.90
54960;DHT22;40860;51.710;8.736;2022-12-05T14:53:50;1.60;99.90
54960;DHT22;40860;51.710;8.736;2022-12-05T14:57:54;1.50;99.90
54960;DHT22;40860;51.710;8.736;2022-12-05T15:01:59;1.60;99.90
54960;DHT22;40860;51.710;8.736;2022-12-05T15:06:05;1.60;99.90
54960;DHT22;40860;51.710;8.736;2022-12-05T15:10:20;1.50;99.90
54960;DHT22;40860;51.710;8.736;2022-12-05T15:14:27;1.50;99.90
54960;DHT22;40860;51.710;8.736;2022-12-05T15:18:37;1.50;99.90
54960;DHT22;40860;51.710;8.736;2022-12-05T15:22:40;1.50;99.90
54960;DHT22;40860;51.710;8.736;2022-12-05T15:26:45;1.50;99.90
54960;DHT22;40860;51.710;8.736;2022-12-05T15:30:55;1.50;99.90
54960;DHT22;40860;51.710;8.736;2022-12-05T15:35:00;1.50;99.90
54960;DHT22;40860;51.710;8.736;2022-12-05T15:39:19;1.50;99.90
54960;DHT22;40860;51.710;8.736;2022-12-05T15:43:28;1.50;99.90
54960;DHT22;40860;51.710;8.736;2022-12-05T15:47:32;1.50;99.90
54960;DHT22;40860;51.710;8.736;2022-12-05T15:51:36;1.50;99.90
54960;DHT22;40860;51.710;8.736;2022-12-05T15:55:43;1.50;99.90
54960;DHT22;40860;51.710;8.736;2022-12-05T15:59:51;1.50;99.90
54960;DHT22;40860;51.710;8.736;2022-12-05T16:03:59;1.50;99.90
54960;DHT22;40860;51.710;8.736;2022-12-05T16:08:04;1.50;99.90
54960;DHT22;40860;51.710;8.736;2022-12-05T16:12:18;1.50;99.90
54960;DHT22;40860;51.710;8.736;2022-12-05T16:16:23;1.50;99.90
54960;DHT22;40860;51.710;8.736;2022-12-05T16:20:31;1.50;99.90
54960;DHT22;40860;51.710;8.736;2022-12-05T16:24:39;1.50;99.90
54960;DHT22;40860;51.710;8.736;2022-12-05T16:28:55;1.40;99.90
54960;DHT22;40860;51.710;8.736;2022-12-05T16:33:04;1.50;99.90
54960;DHT22;40860;51.710;8.736;2022-12-05T16:37:16;1.50;99.90
54960;DHT22;40860;51.710;8.736;2022-12-05T16:41:20;1.50;99.90
54960;DHT22;40860;51.710;8.736;2022-12-05T16:45:37;1.50;99.90
54960;DHT22;40860;51.710;8.736;2022-12-05T16:49:40;1.50;99.90
54960;DHT22;40860;51.710;8.736;2022-12-05T16:53:49;1.50;99.90
54960;DHT22;40860;51.710;8.736;2022-12-05T16:57:53;1.50;99.90
54960;DHT22;40860;51.710;8.736;2022-12-05T17:01:56;1.50;99.90
54960;DHT22;40860;51.710;8.736;2022-12-05T17:05:59;1.50;99.90
54960;DHT22;40860;51.710;8.736;2022-12-05T17:10:04;1.50;99.90
54960;DHT22;40860;51.710;8.736;2022-12-05T17:14:10;1.50;99.90
54960;DHT22;40860;51.710;8.736;2022-12-05T17:18:17;1.50;99.90
54960;DHT22;40860;51.710;8.736;2022-12-05T17:22:21;1.40;99.90
54960;DHT22;40860;51.710;8.736;2022-12-05T17:26:28;1.50;99.90
54960;DHT22;40860;51.710;8.736;2022-12-05T17:30:30;1.40;99.90
54960;DHT22;40860;51.710;8.736;2022-12-05T17:34:35;1.40;99.90
54960;DHT22;40860;51.710;8.736;2022-12-05T17:38:38;1.40;99.90
54960;DHT22;40860;51.710;8.736;2022-12-05T17:42:42;1.40;99.90
54960;DHT22;40860;51.710;8.736;2022-12-05T17:46:45;1.40;99.90
54960;DHT22;40860;51.710;8.736;2022-12-05T17:50:48;1.40;99.90
54960;DHT22;40860;51.710;8.736;2022-12-05T17:54:51;1.40;99.90
54960;DHT22;40860;51.710;8.736;2022-12-05T17:58:55;1.40;99.90
54960;DHT22;40860;51.710;8.736;2022-12-05T18:03:01;1.40;99.90
54960;DHT22;40860;51.710;8.736;2022-12-05T18:07:04;1.40;99.90
54960;DHT22;40860;51.710;8.736;2022-12-05T18:11:07;1.40;99.90
54960;DHT22;40860;51.710;8.736;2022-12-05T18:15:14;1.40;99.90
54960;DHT22;40860;51.710;8.736;2022-12-05T18:19:17;1.40;99.90
54960;DHT22;40860;51.710;8.736;2022-12-05T18:23:20;1.40;99.90
54960;DHT22;40860;51.710;8.736;2022-12-05T18:27:23;1.40;99.90
54960;DHT22;40860;51.710;8.736;2022-12-05T18:31:28;1.40;99.90
54960;DHT22;40860;51.710;8.736;2022-12-05T18:35:32;1.40;99.90
54960;DHT22;40860;51.710;8.736;2022-12-05T18:39:44;1.40;99.90
54960;DHT22;40860;51.710;8.736;2022-12-05T18:43:47;1.40;99.90
54960;DHT22;40860;51.710;8.736;2022-12-05T18:47:51;1.40;99.90
54960;DHT22;40860;51.710;8.736;2022-12-05T18:52:10;1.40;99.90
54960;DHT22;40860;51.710;8.736;2022-12-05T18:56:13;1.40;99.90
54960;DHT22;40860;51.710;8.736;2022-12-05T19:00:26;1.40;99.90
54960;DHT22;40860;51.710;8.736;2022-12-05T19:04:31;1.40;99.90
54960;DHT22;40860;51.710;8.736;2022-12-05T19:08:34;1.40;99.90
54960;DHT22;40860;51.710;8.736;2022-12-05T19:12:37;1.40;99.90
54960;DHT22;40860;51.710;8.736;2022-12-05T19:16:40;1.40;99.90
54960;DHT22;40860;51.710;8.736;2022-12-05T19:20:49;1.40;99.90
54960;DHT22;40860;51.710;8.736;2022-12-05T19:24:52;1.40;99.90
54960;DHT22;40860;51.710;8.736;2022-12-05T19:28:56;1.40;99.90
54960;DHT22;40860;51.710;8.736;2022-12-05T19:32:59;1.40;99.90
54960;DHT22;40860;51.710;8.736;2022-12-05T19:37:04;1.40;99.90
54960;DHT22;40860;51.710;8.736;2022-12-05T19:41:09;1.40;99.90
54960;DHT22;40860;51.710;8.736;2022-12-05T19:45:12;1.40;99.90
54960;DHT22;40860;51.710;8.736;2022-12-05T19:49:19;1.40;99.90
54960;DHT22;40860;51.710;8.736;2022-12-05T19:53:27;1.50;99.90
54960;DHT22;40860;51.710;8.736;2022-12-05T19:57:30;1.40;99.90
54960;DHT22;40860;51.710;8.736;2022-12-05T20:01:35;1.50;99.90
54960;DHT22;40860;51.710;8.736;2022-12-05T20:05:38;1.40;99.90
54960;DHT22;40860;51.710;8.736;2022-12-05T20:09:43;1.50;99.90
54960;DHT22;40860;51.710;8.736;2022-12-05T20:13:46;1.40;99.90
54960;DHT22;40860;51.710;8.736;2022-12-05T20:17:49;1.40;99.90
54960;DHT22;40860;51.710;8.736;2022-12-05T20:21:54;1.50;99.90
54960;DHT22;40860;51.710;8.736;2022-12-05T20:26:02;1.50;99.90
54960;DHT22;40860;51.710;8.736;2022-12-05T20:30:06;1.50;99.90
54960;DHT22;40860;51.710;8.736;2022-12-05T20:34:11;1.50;99.90
54960;DHT22;40860;51.710;8.736;2022-12-05T20:38:15;1.50;99.90
54960;DHT22;40860;51.710;8.736;2022-12-05T20:42:19;1.50;99.90
54960;DHT22;40860;51.710;8.736;2022-12-05T20:46:23;1.50;99.90
54960;DHT22;40860;51.710;8.736;2022-12-05T20:50:26;1.50;99.90
54960;DHT22;40860;51.710;8.736;2022-12-05T20:54:29;1.50;99.90
54960;DHT22;40860;51.710;8.736;2022-12-05T20:58:33;1.50;99.90
54960;DHT22;40860;51.710;8.736;2022-12-05T21:02:36;1.50;99.90
54960;DHT22;40860;51.710;8.736;2022-12-05T21:06:40;1.50;99.90
54960;DHT22;40860;51.710;8.736;2022-12-05T21:10:44;1.50;99.90
54960;DHT22;40860;51.710;8.736;2022-12-05T21:14:49;1.50;99.90
54960;DHT22;40860;51.710;8.736;2022-12-05T21:18:53;1.50;99.90
54960;DHT22;40860;51.710;8.736;2022-12-05T21:22:56;1.50;99.90
54960;DHT22;40860;51.710;8.736;2022-12-05T21:26:59;1.50;99.90
54960;DHT22;40860;51.710;8.736;2022-12-05T21:31:09;1.50;99.90
54960;DHT22;40860;51.710;8.736;2022-12-05T21:35:12;1.50;99.90
54960;DHT22;40860;51.710;8.736;2022-12-05T21:39:15;1.50;99.90
54960;DHT22;40860;51.710;8.736;2022-12-05T21:43:18;1.50;99.90
54960;DHT22;40860;51.710;8.736;2022-12-05T21:47:22;1.50;99.90
54960;DHT22;40860;51.710;8.736;2022-12-05T21:51:25;1.50;99.90
54960;DHT22;40860;51.710;8.736;2022-12-05T21:55:28;1.50;99.90
54960;DHT22;40860;51.710;8.736;2022-12-05T21:59:31;1.50;99.90
54960;DHT22;40860;51.710;8.736;2022-12-05T22:03:36;1.50;99.90
54960;DHT22;40860;51.710;8.736;2022-12-05T22:07:39;1.50;99.90
54960;DHT22;40860;51.710;8.736;2022-12-05T22:11:43;1.50;99.90
54960;DHT22;40860;51.710;8.736;2022-12-05T22:15:49;1.50;99.90
54960;DHT22;40860;51.710;8.736;2022-12-05T22:19:55;1.50;99.90
54960;DHT22;40860;51.710;8.736;2022-12-05T22:23:58;1.50;99.90
54960;DHT22;40860;51.710;8.736;2022-12-05T22:28:02;1.50;99.90
54960;DHT22;40860;51.710;8.736;2022-12-05T22:32:05;1.40;99.90
54960;DHT22;40860;51.710;8.736;2022-12-05T22:36:11;1.40;99.90
54960;DHT22;40860;51.710;8.736;2022-12-05T22:40:14;1.40;99.90
54960;DHT22;40860;51.710;8.736;2022-12-05T22:44:17;1.50;99.90
54960;DHT22;40860;51.710;8.736;2022-12-05T22:48:20;1.40;99.90
54960;DHT22;40860;51.710;8.736;2022-12-05T22:52:25;1.50;99.90
54960;DHT22;40860;51.710;8.736;2022-12-05T22:56:28;1.40;99.90
54960;DHT22;40860;51.710;8.736;2022-12-05T23:00:31;1.50;99.90
54960;DHT22;40860;51.710;8.736;2022-12-05T23:04:34;1.40;99.90
54960;DHT22;40860;51.710;8.736;2022-12-05T23:08:38;1.50;99.90
54960;DHT22;40860;51.710;8.736;2022-12-05T23:12:41;1.40;99.90
54960;DHT22;40860;51.710;8.736;2022-12-05T23:16:44;1.50;99.90
54960;DHT22;40860;51.710;8.736;2022-12-05T23:20:48;1.50;99.90
54960;DHT22;40860;51.710;8.736;2022-12-05T23:24:52;1.40;99.90
54960;DHT22;40860;51.710;8.736;2022-12-05T23:28:55;1.40;99.90
54960;DHT22;40860;51.710;8.736;2022-12-05T23:32:58;1.40;99.90
54960;DHT22;40860;51.710;8.736;2022-12-05T23:37:01;1.40;99.90
54960;DHT22;40860;51.710;8.736;2022-12-05T23:41:07;1.40;99.90
54960;DHT22;40860;51.710;8.736;2022-12-05T23:45:10;1.40;99.90
54960;DHT22;40860;51.710;8.736;2022-12-05T23:49:13;1.40;99.90
54960;DHT22;40860;51.710;8.736;2022-12-05T23:53:16;1.40;99.90
54960;DHT22;40860;51.710;8.736;2022-12-05T23:57:20;1.40;99.90
